createdAt,value
2022-08-12T00:02:03.888Z,97821.32
2022-08-12T00:04:53.343Z,97821.27
2022-08-12T00:07:39.905Z,97830.02
2022-08-12T00:10:26.755Z,97829.09
2022-08-12T00:13:14.137Z,97828.88
2022-08-12T00:16:04.165Z,97830.27
2022-08-12T00:18:50.815Z,97833.52
2022-08-12T00:21:38.658Z,97834.27
2022-08-12T00:24:26.533Z,97834.02
2022-08-12T00:27:15.004Z,97834.20
2022-08-12T00:30:02.805Z,97840.01
2022-08-12T00:32:54.674Z,97839.84
2022-08-12T00:35:44.359Z,97845.90
2022-08-12T00:38:31.585Z,97841.94
2022-08-12T00:41:19.129Z,97838.98
2022-08-12T00:43:48.651Z,97838.11
2022-08-12T00:46:31.622Z,97836.14
2022-08-12T00:49:02.039Z,97839.13
2022-08-12T00:51:48.946Z,97839.59
2022-08-12T00:54:18.294Z,97834.93
2022-08-12T00:56:51.279Z,97831.96
2022-08-12T00:59:19.797Z,97832.15
2022-08-12T01:02:10.254Z,97830.10
2022-08-12T01:04:59.312Z,97826.31
2022-08-12T01:07:47.491Z,97826.83
2022-08-12T01:10:33.968Z,97831.15
2022-08-12T01:13:07.322Z,97827.98
2022-08-12T01:15:53.043Z,97824.20
2022-08-12T01:18:23.586Z,97822.23
2022-08-12T01:21:09.570Z,97822.80
2022-08-12T01:23:41.051Z,97822.30
2022-08-12T01:26:16.831Z,97827.41
2022-08-12T01:28:50.280Z,97827.04
2022-08-12T01:31:20.530Z,97825.80
2022-08-12T01:34:35.644Z,97829.83
2022-08-12T01:37:00.726Z,97826.66
2022-08-12T01:40:33.882Z,97828.05
2022-08-12T01:42:46.801Z,97828.70
2022-08-12T01:45:17.680Z,97829.92
2022-08-12T01:48:00.895Z,97828.14
2022-08-12T01:50:43.487Z,97827.30
2022-08-12T01:53:15.036Z,97825.48
2022-08-12T01:55:46.775Z,97825.08
2022-08-12T01:58:57.580Z,97824.39
2022-08-12T02:01:34.521Z,97828.19
2022-08-12T02:04:39.885Z,97828.13
2022-08-12T02:07:54.098Z,97825.06
2022-08-12T02:10:50.380Z,97822.65
2022-08-12T02:13:55.523Z,97824.76
2022-08-12T02:16:30.478Z,97827.71
2022-08-12T02:19:21.937Z,97828.89
2022-08-12T02:22:22.320Z,97829.30
2022-08-12T02:24:54.296Z,97829.52
2022-08-12T02:27:28.078Z,97832.33
2022-08-12T02:29:56.094Z,97828.47
2022-08-12T02:32:24.273Z,97823.52
2022-08-12T02:34:52.788Z,97819.69
2022-08-12T02:37:23.962Z,97814.46
2022-08-12T02:39:55.166Z,97814.36
2022-08-12T02:42:25.205Z,97814.26
2022-08-12T02:44:56.317Z,97811.99
2022-08-12T02:48:00.077Z,97807.16
2022-08-12T02:50:20.606Z,97802.71
2022-08-12T02:52:52.071Z,97804.42
2022-08-12T02:55:28.927Z,97810.73
2022-08-12T02:58:12.596Z,97810.48
2022-08-12T03:00:44.336Z,97811.04
2022-08-12T03:03:14.101Z,97813.84
2022-08-12T03:05:52.606Z,97815.60
2022-08-12T03:08:32.651Z,97816.29
2022-08-12T03:11:14.434Z,97813.98
2022-08-12T03:13:51.372Z,97811.27
2022-08-12T03:16:23.909Z,97807.89
2022-08-12T03:18:53.260Z,97809.14
2022-08-12T03:21:53.138Z,97806.50
2022-08-12T03:24:16.609Z,97811.21
2022-08-12T03:26:47.541Z,97814.66
2022-08-12T03:29:17.199Z,97816.85
2022-08-12T03:31:46.846Z,97822.34
2022-08-12T03:34:23.809Z,97824.36
2022-08-12T03:36:55.451Z,97822.84
2022-08-12T03:39:39.190Z,97819.23
2022-08-12T03:42:35.574Z,97818.19
2022-08-12T03:45:35.007Z,97816.66
2022-08-12T03:48:36.936Z,97813.94
2022-08-12T03:51:23.903Z,97814.15
2022-08-12T03:54:11.540Z,97817.63
2022-08-12T03:56:58.662Z,97821.21
2022-08-12T03:59:45.091Z,97820.20
2022-08-12T04:02:16.468Z,97821.23
2022-08-12T04:04:45.897Z,97818.18
2022-08-12T04:07:16.437Z,97817.78
2022-08-12T04:09:46.395Z,97818.66
2022-08-12T04:12:33.757Z,97813.72
2022-08-12T04:15:02.899Z,97811.45
2022-08-12T04:17:32.051Z,97810.11
2022-08-12T04:20:00.250Z,97810.45
2022-08-12T04:22:29.990Z,97814.14
2022-08-12T04:25:01.703Z,97814.67
2022-08-12T04:27:32.444Z,97813.50
2022-08-12T04:30:17.080Z,97814.61
2022-08-12T04:32:54.033Z,97818.32
2022-08-12T04:35:22.190Z,97820.25
2022-08-12T04:37:58.312Z,97824.52
2022-08-12T04:40:31.699Z,97829.16
2022-08-12T04:43:01.838Z,97832.58
2022-08-12T04:45:34.919Z,97835.27
2022-08-12T04:48:03.853Z,97832.48
2022-08-12T04:50:36.331Z,97832.23
2022-08-12T04:53:07.997Z,97834.16
2022-08-12T04:55:41.107Z,97832.52
2022-08-12T04:58:10.311Z,97830.15
2022-08-12T05:00:39.071Z,97826.95
2022-08-12T05:03:07.655Z,97831.61
2022-08-12T05:05:38.062Z,97835.73
2022-08-12T05:08:12.007Z,97837.52
2022-08-12T05:10:40.067Z,97839.40
2022-08-12T05:13:11.526Z,97843.95
2022-08-12T05:16:05.179Z,97841.20
2022-08-12T05:18:30.085Z,97837.54
2022-08-12T05:20:59.514Z,97835.12
2022-08-12T05:23:28.086Z,97833.54
2022-08-12T05:25:57.342Z,97827.89
2022-08-12T05:28:27.164Z,97827.13
2022-08-12T05:30:57.249Z,97827.21
2022-08-12T05:33:41.061Z,97826.70
2022-08-12T05:36:15.473Z,97831.88
2022-08-12T05:38:56.951Z,97830.02
2022-08-12T05:41:36.160Z,97823.77
2022-08-12T05:44:07.452Z,97813.77
2022-08-12T05:46:37.181Z,97806.54
2022-08-12T05:49:06.220Z,97799.95
2022-08-12T05:51:40.328Z,97799.88
2022-08-12T05:54:11.365Z,97792.69
2022-08-12T05:56:41.712Z,97794.04
2022-08-12T05:59:12.320Z,97793.35
2022-08-12T06:02:10.005Z,97789.39
2022-08-12T06:04:31.499Z,97789.13
2022-08-12T06:06:59.898Z,97785.09
2022-08-12T06:09:30.459Z,97787.26
2022-08-12T06:12:04.633Z,97791.01
2022-08-12T06:14:37.798Z,97789.31
2022-08-12T06:17:09.385Z,97789.98
2022-08-12T06:20:22.722Z,97789.31
2022-08-12T06:22:27.036Z,97785.12
2022-08-12T06:24:55.384Z,97781.48
2022-08-12T06:27:23.553Z,97783.33
2022-08-12T06:30:08.973Z,97780.17
2022-08-12T06:33:04.262Z,97776.41
2022-08-12T06:35:48.271Z,97775.90
2022-08-12T06:38:22.474Z,97772.77
2022-08-12T06:41:13.689Z,97771.14
2022-08-12T06:44:07.187Z,97766.02
2022-08-12T06:46:32.107Z,97767.70
2022-08-12T06:49:00.696Z,97765.27
2022-08-12T06:51:31.262Z,97769.61
2022-08-12T06:54:01.039Z,97772.59
2022-08-12T06:56:59.675Z,97770.10
2022-08-12T06:59:17.649Z,97768.52
2022-08-12T07:01:49.797Z,97762.66
2022-08-12T07:04:37.815Z,97759.59
2022-08-12T07:07:09.855Z,97754.20
2022-08-12T07:10:05.198Z,97754.73
2022-08-12T07:12:30.669Z,97753.11
2022-08-12T07:15:02.196Z,97749.08
2022-08-12T07:17:36.726Z,97749.67
2022-08-12T07:20:20.131Z,97744.59
2022-08-12T07:23:00.532Z,97740.15
2022-08-12T07:25:40.392Z,97739.48
2022-08-12T07:28:25.099Z,97735.30
2022-08-12T07:30:54.868Z,97731.27
2022-08-12T07:33:28.325Z,97725.58
2022-08-12T07:35:58.912Z,97725.52
2022-08-12T07:38:36.133Z,97722.23
2022-08-12T07:41:15.867Z,97720.98
2022-08-12T07:44:00.042Z,97724.67
2022-08-12T07:46:40.371Z,97723.09
2022-08-12T07:49:14.127Z,97722.14
2022-08-12T07:51:44.249Z,97721.64
2022-08-12T07:54:13.950Z,97716.66
2022-08-12T07:56:43.198Z,97715.98
2022-08-12T07:59:11.929Z,97715.30
2022-08-12T08:01:40.349Z,97715.73
2022-08-12T08:04:27.606Z,97713.77
2022-08-12T08:06:57.968Z,97712.67
2022-08-12T08:09:26.325Z,97713.00
2022-08-12T08:12:19.027Z,97710.80
2022-08-12T08:14:49.850Z,97709.36
2022-08-12T08:17:19.303Z,97708.25
2022-08-12T08:20:03.804Z,97705.46
2022-08-12T08:22:50.285Z,97704.84
2022-08-12T08:25:37.251Z,97704.73
2022-08-12T08:28:12.121Z,97705.15
2022-08-12T08:30:46.236Z,97706.02
2022-08-12T08:33:24.670Z,97703.81
2022-08-12T08:36:05.340Z,97702.05
2022-08-12T08:38:35.382Z,97702.60
2022-08-12T08:42:17.838Z,97702.58
2022-08-12T08:44:11.960Z,97702.14
2022-08-12T08:46:43.829Z,97702.74
2022-08-12T08:49:13.096Z,97699.77
2022-08-12T08:51:42.926Z,97697.60
2022-08-12T08:54:12.856Z,97699.31
2022-08-12T08:56:50.486Z,97698.17
2022-08-12T08:59:20.080Z,97695.62
2022-08-12T09:01:48.843Z,97693.09
2022-08-12T09:05:09.953Z,97692.80
2022-08-12T09:07:17.634Z,97692.21
2022-08-12T09:10:03.473Z,97688.25
2022-08-12T09:12:55.226Z,97688.13
2022-08-12T09:15:35.393Z,97689.61
2022-08-12T09:18:09.096Z,97685.56
2022-08-12T09:20:39.577Z,97684.95
2022-08-12T09:26:04.570Z,97680.36
2022-08-12T09:28:33.565Z,97679.34
2022-08-12T09:32:03.696Z,97679.76
2022-08-12T09:34:29.046Z,97678.41
2022-08-12T09:36:59.906Z,97677.14
2022-08-12T09:40:08.126Z,97676.02
2022-08-12T09:42:49.220Z,97673.86
2022-08-12T09:46:11.420Z,97668.44
2022-08-12T09:48:21.972Z,97671.20
2022-08-12T09:50:55.110Z,97668.83
2022-08-12T09:53:35.875Z,97666.86
2022-08-12T09:57:00.177Z,97662.70
2022-08-12T09:59:03.121Z,97659.35
2022-08-12T10:01:35.424Z,97654.83
2022-08-12T10:04:20.692Z,97654.27
2022-08-12T10:06:54.728Z,97651.15
2022-08-12T10:09:28.912Z,97644.23
2022-08-12T10:12:33.456Z,97638.38
2022-08-12T10:15:02.537Z,97637.14
2022-08-12T10:17:31.386Z,97634.83
2022-08-12T10:20:02.652Z,97630.08
2022-08-12T10:22:39.436Z,97632.60
2022-08-12T10:25:51.648Z,97630.90
2022-08-12T10:28:38.923Z,97633.70
2022-08-12T10:31:16.602Z,97633.21
2022-08-12T10:34:05.071Z,97634.27
2022-08-12T10:36:40.259Z,97631.98
2022-08-12T10:40:01.879Z,97626.83
2022-08-12T10:42:29.482Z,97630.85
2022-08-12T10:45:01.659Z,97628.95
2022-08-12T10:48:20.643Z,97625.08
2022-08-12T10:50:35.926Z,97624.45
2022-08-12T10:53:15.587Z,97624.66
2022-08-12T10:55:55.545Z,97622.15
2022-08-12T10:58:31.587Z,97621.56
2022-08-12T11:01:25.711Z,97622.80
2022-08-12T11:04:26.472Z,97620.67
2022-08-12T11:07:05.822Z,97612.42
2022-08-12T11:09:41.614Z,97613.38
2022-08-12T11:12:56.078Z,97611.96
2022-08-12T11:15:18.488Z,97605.54
2022-08-12T11:17:52.471Z,97609.73
2022-08-12T11:20:23.977Z,97606.45
2022-08-12T11:22:58.907Z,97603.80
2022-08-12T11:25:56.867Z,97603.02
2022-08-12T11:28:17.028Z,97605.17
2022-08-12T11:31:01.330Z,97602.12
2022-08-12T11:34:06.045Z,97604.10
2022-08-12T11:36:22.083Z,97602.31
2022-08-12T11:38:51.423Z,97598.18
2022-08-12T11:41:28.090Z,97595.67
2022-08-12T11:44:35.032Z,97596.22
2022-08-12T11:46:52.762Z,97595.33
2022-08-12T11:49:32.753Z,97595.01
2022-08-12T11:52:02.205Z,97591.23
2022-08-12T11:54:31.659Z,97591.75
2022-08-12T11:57:02.513Z,97590.41
2022-08-12T12:02:21.432Z,97588.27
2022-08-12T12:04:53.913Z,97584.08
2022-08-12T12:07:33.964Z,97579.98
2022-08-12T12:10:21.029Z,97578.04
2022-08-12T12:12:49.752Z,97575.57
2022-08-12T12:15:25.362Z,97574.91
2022-08-12T12:18:05.823Z,97569.16
2022-08-12T12:20:35.295Z,97571.45
2022-08-12T12:23:04.466Z,97571.50
2022-08-12T12:26:07.211Z,97570.30
2022-08-12T12:28:36.881Z,97567.88
2022-08-12T12:31:15.035Z,97559.77
2022-08-12T12:33:58.009Z,97558.94
2022-08-12T12:36:30.254Z,97557.60
2022-08-12T12:38:59.951Z,97557.18
2022-08-12T12:42:42.442Z,97560.00
2022-08-12T12:44:25.989Z,97556.44
2022-08-12T12:46:58.535Z,97544.68
2022-08-12T12:49:28.950Z,97540.40
2022-08-12T12:52:18.797Z,97536.98
2022-08-12T12:54:53.056Z,97532.88
2022-08-12T12:57:36.389Z,97536.95
2022-08-12T13:00:15.227Z,97533.77
2022-08-12T13:02:58.033Z,97528.18
2022-08-12T13:05:27.689Z,97525.16
2022-08-12T13:08:01.063Z,97524.48
2022-08-12T13:10:37.030Z,97525.27
2022-08-12T13:14:06.759Z,97521.39
2022-08-12T13:15:59.206Z,97517.20
2022-08-12T13:18:36.588Z,97515.58
2022-08-12T13:21:15.748Z,97513.86
2022-08-12T13:23:58.043Z,97508.98
2022-08-12T13:26:26.036Z,97508.97
2022-08-12T13:28:56.144Z,97505.52
2022-08-12T13:31:25.013Z,97506.01
2022-08-12T13:34:28.510Z,97506.64
2022-08-12T13:36:42.595Z,97510.71
2022-08-12T13:39:10.636Z,97510.65
2022-08-12T13:41:39.212Z,97508.03
2022-08-12T13:44:10.681Z,97503.58
2022-08-12T13:46:42.247Z,97501.50
2022-08-12T13:49:17.500Z,97498.89
2022-08-12T13:52:01.980Z,97498.21
2022-08-12T13:54:31.758Z,97494.40
2022-08-12T13:57:01.381Z,97495.33
2022-08-12T13:59:48.252Z,97491.17
2022-08-12T14:02:24.696Z,97489.10
2022-08-12T14:04:56.769Z,97498.31
2022-08-12T14:07:26.075Z,97499.06
2022-08-12T14:10:16.305Z,97497.47
2022-08-12T14:12:54.025Z,97498.02
2022-08-12T14:15:36.437Z,97491.48
2022-08-12T14:18:25.724Z,97489.39
2022-08-12T14:20:58.712Z,97486.55
2022-08-12T14:24:04.016Z,97483.14
2022-08-12T14:26:21.544Z,97480.88
2022-08-12T14:28:57.298Z,97472.80
2022-08-12T14:31:31.969Z,97469.83
2022-08-12T14:34:00.342Z,97466.73
2022-08-12T14:36:34.041Z,97464.59
2022-08-12T14:39:05.034Z,97466.62
2022-08-12T14:41:36.504Z,97464.88
2022-08-12T14:44:57.268Z,97468.63
2022-08-12T14:47:07.726Z,97465.36
2022-08-12T14:50:33.484Z,97465.61
2022-08-12T14:53:15.380Z,97461.87
2022-08-12T14:58:03.086Z,97464.91
2022-08-12T15:00:52.319Z,97461.86
2022-08-12T15:03:52.553Z,97459.33
2022-08-12T15:06:39.076Z,97461.27
2022-08-12T15:09:12.286Z,97459.00
2022-08-12T15:11:54.442Z,97455.16
2022-08-12T15:14:30.215Z,97450.80
2022-08-12T15:17:00.112Z,97449.95
2022-08-12T15:20:31.512Z,97448.91
2022-08-12T15:22:37.912Z,97447.36
2022-08-12T15:25:08.039Z,97450.81
2022-08-12T15:28:05.053Z,97454.48
2022-08-12T15:30:33.890Z,97454.52
2022-08-12T15:33:12.243Z,97448.16
2022-08-12T15:35:53.240Z,97445.30
2022-08-12T15:38:27.218Z,97447.08
2022-08-12T15:40:58.919Z,97443.80
2022-08-12T15:44:16.119Z,97448.84
2022-08-12T15:46:21.125Z,97444.65
2022-08-12T15:48:54.576Z,97438.73
2022-08-12T15:51:59.570Z,97437.77
2022-08-12T15:54:35.041Z,97436.81
2022-08-12T15:57:08.165Z,97437.09
2022-08-12T16:00:03.669Z,97433.89
2022-08-12T16:02:29.755Z,97435.14
2022-08-12T16:04:58.679Z,97433.94
2022-08-12T16:07:29.834Z,97433.71
2022-08-12T16:10:06.999Z,97428.63
2022-08-12T16:12:54.685Z,97427.64
2022-08-12T16:15:26.205Z,97433.15
2022-08-12T16:18:19.740Z,97430.63
2022-08-12T16:20:46.690Z,97429.12
2022-08-12T16:23:35.759Z,97430.34
2022-08-12T16:26:14.861Z,97427.11
2022-08-12T16:28:47.183Z,97422.19
2022-08-12T16:31:23.568Z,97419.61
2022-08-12T16:33:59.001Z,97421.86
2022-08-12T16:36:29.998Z,97423.60
2022-08-12T16:39:01.317Z,97422.09
2022-08-12T16:41:38.071Z,97419.73
2022-08-12T16:44:09.251Z,97415.95
2022-08-12T16:46:38.277Z,97412.23
2022-08-12T16:49:09.363Z,97413.06
2022-08-12T16:51:46.740Z,97410.70
2022-08-12T16:54:18.612Z,97412.59
2022-08-12T16:56:55.473Z,97408.84
2022-08-12T16:59:52.924Z,97408.11
2022-08-12T17:02:31.876Z,97408.52
2022-08-12T17:05:05.372Z,97411.69
2022-08-12T17:07:43.592Z,97413.11
2022-08-12T17:10:18.357Z,97419.96
2022-08-12T17:13:10.305Z,97425.27
2022-08-12T17:15:50.639Z,97422.64
2022-08-12T17:18:44.323Z,97425.21
2022-08-12T17:21:19.757Z,97423.49
2022-08-12T17:23:53.454Z,97425.03
2022-08-12T17:26:28.418Z,97425.27
2022-08-12T17:29:00.022Z,97428.20
2022-08-12T17:32:00.806Z,97427.65
2022-08-12T17:34:38.500Z,97430.02
2022-08-12T17:37:07.482Z,97433.96
2022-08-12T17:40:15.015Z,97433.69
2022-08-12T17:42:32.997Z,97434.58
2022-08-12T17:45:18.065Z,97438.33
2022-08-12T17:48:02.122Z,97438.36
2022-08-12T17:50:38.013Z,97438.28
2022-08-12T17:53:10.821Z,97439.70
2022-08-12T17:55:48.248Z,97437.66
2022-08-12T17:58:21.628Z,97438.67
2022-08-12T18:01:04.468Z,97443.72
2022-08-12T18:03:58.209Z,97444.92
2022-08-12T18:06:27.791Z,97444.31
2022-08-12T18:08:59.421Z,97442.52
2022-08-12T18:12:06.660Z,97446.48
2022-08-12T18:14:38.034Z,97447.30
2022-08-12T18:17:08.635Z,97449.01
2022-08-12T18:20:06.206Z,97449.62
2022-08-12T18:22:30.345Z,97456.13
2022-08-12T18:25:04.031Z,97456.95
2022-08-12T18:27:43.636Z,97459.58
2022-08-12T18:30:20.993Z,97455.61
2022-08-12T18:33:03.662Z,97458.82
2022-08-12T18:35:46.511Z,97460.27
2022-08-12T18:38:16.863Z,97468.22
2022-08-12T18:41:06.160Z,97468.80
2022-08-12T18:43:57.566Z,97468.45
2022-08-12T18:46:55.358Z,97471.08
2022-08-12T18:49:31.954Z,97478.09
2022-08-12T18:52:05.223Z,97481.34
2022-08-12T18:54:36.191Z,97482.88
2022-08-12T18:57:19.326Z,97488.27
2022-08-12T19:00:06.054Z,97494.84
2022-08-12T19:02:40.556Z,97495.94
2022-08-12T19:05:12.279Z,97496.40
2022-08-12T19:07:57.872Z,97493.46
2022-08-12T19:10:31.753Z,97497.23
2022-08-12T19:13:24.032Z,97495.27
2022-08-12T19:15:57.851Z,97492.67
2022-08-12T19:18:29.170Z,97494.27
2022-08-12T19:21:12.143Z,97493.10
2022-08-12T19:24:04.821Z,97496.91
2022-08-12T19:26:34.952Z,97499.16
2022-08-12T19:29:05.299Z,97494.44
2022-08-12T19:31:55.685Z,97496.34
2022-08-12T19:37:22.625Z,97498.33
2022-08-12T19:40:08.723Z,97495.05
2022-08-12T19:43:00.639Z,97492.23
2022-08-12T19:45:42.139Z,97489.03
2022-08-12T19:48:16.983Z,97491.89
2022-08-12T19:50:50.238Z,97488.66
2022-08-12T19:53:24.634Z,97485.27
2022-08-12T19:55:55.425Z,97483.85
2022-08-12T19:58:24.921Z,97486.27
2022-08-12T20:00:54.599Z,97489.93
2022-08-12T20:03:38.106Z,97491.96
2022-08-12T20:06:15.675Z,97490.13
2022-08-12T20:08:48.775Z,97485.99
2022-08-12T20:12:13.460Z,97482.04
2022-08-12T20:14:19.445Z,97483.19
2022-08-12T20:16:57.498Z,97481.12
2022-08-12T20:20:01.270Z,97484.34
2022-08-12T20:22:29.875Z,97480.32
2022-08-12T20:25:09.109Z,97475.25
2022-08-12T20:28:02.895Z,97469.50
2022-08-12T20:30:52.523Z,97467.64
2022-08-12T20:33:18.406Z,97464.98
2022-08-12T20:36:13.547Z,97463.27
2022-08-12T20:38:40.185Z,97460.70
2022-08-12T20:41:17.383Z,97456.70
2022-08-12T20:43:54.827Z,97458.33
2022-08-12T20:46:29.632Z,97462.02
2022-08-12T20:49:14.761Z,97466.64
2022-08-12T20:51:55.315Z,97471.47
2022-08-12T20:54:32.888Z,97475.45
2022-08-12T20:57:08.811Z,97476.00
2022-08-12T20:59:47.638Z,97476.34
2022-08-12T21:02:24.457Z,97476.59
2022-08-12T21:05:20.244Z,97476.08
2022-08-12T21:07:51.533Z,97474.02
2022-08-12T21:10:21.338Z,97472.50
2022-08-12T21:12:55.147Z,97478.09
2022-08-12T21:15:30.569Z,97481.97
2022-08-12T21:18:28.765Z,97481.96
2022-08-12T21:20:59.016Z,97480.27
2022-08-12T21:23:31.000Z,97482.10
2022-08-12T21:26:16.204Z,97480.26
2022-08-12T21:28:58.498Z,97485.79
2022-08-12T21:32:46.825Z,97489.00
2022-08-12T21:34:26.113Z,97490.12
2022-08-12T21:37:12.864Z,97489.98
2022-08-12T21:39:41.523Z,97486.85
2022-08-12T21:42:21.042Z,97486.51
2022-08-12T21:45:46.568Z,97489.64
2022-08-12T21:47:44.685Z,97494.56
2022-08-12T21:50:15.454Z,97495.08
2022-08-12T21:52:43.393Z,97489.91
2022-08-12T21:55:19.462Z,97490.03
2022-08-12T21:57:54.901Z,97492.82
2022-08-12T22:00:36.745Z,97496.31
2022-08-12T22:04:01.676Z,97496.59
2022-08-12T22:06:31.418Z,97497.24
2022-08-12T22:09:17.111Z,97498.46
2022-08-12T22:11:56.118Z,97491.35
2022-08-12T22:14:26.293Z,97489.37
2022-08-12T22:16:56.306Z,97488.10
2022-08-12T22:19:24.437Z,97487.40
2022-08-12T22:21:55.645Z,97487.77
2022-08-12T22:24:26.792Z,97485.13
2022-08-12T22:27:08.327Z,97479.48
2022-08-12T22:30:07.106Z,97480.20
2022-08-12T22:32:43.708Z,97484.48
2022-08-12T22:35:56.283Z,97485.73
2022-08-12T22:38:23.653Z,97478.36
2022-08-12T22:41:03.963Z,97472.27
2022-08-12T22:44:00.148Z,97471.97
2022-08-12T22:46:37.361Z,97472.36
2022-08-12T22:49:06.656Z,97470.26
2022-08-12T22:51:42.945Z,97471.43
2022-08-12T22:54:36.033Z,97466.23
2022-08-12T22:57:12.060Z,97468.58
2022-08-12T22:59:55.790Z,97470.33
2022-08-12T23:02:28.982Z,97471.52
2022-08-12T23:04:58.617Z,97470.23
2022-08-12T23:07:26.673Z,97464.63
2022-08-12T23:10:04.402Z,97459.64
2022-08-12T23:12:51.199Z,97460.56
2022-08-12T23:15:21.652Z,97462.17
2022-08-12T23:17:50.098Z,97461.50
2022-08-12T23:20:22.631Z,97461.88
2022-08-12T23:22:56.082Z,97460.67
2022-08-12T23:25:32.721Z,97458.98
2022-08-12T23:28:37.490Z,97461.84
2022-08-12T23:31:06.485Z,97462.91
2022-08-12T23:34:00.665Z,97459.02
2022-08-12T23:36:39.235Z,97456.01
2022-08-12T23:40:14.168Z,97449.80
2022-08-12T23:42:18.125Z,97441.74
2022-08-12T23:44:52.332Z,97437.01
2022-08-12T23:47:23.823Z,97437.47
2022-08-12T23:49:57.635Z,97430.67
2022-08-12T23:52:27.628Z,97429.10
2022-08-12T23:55:24.796Z,97424.16
2022-08-12T23:58:22.407Z,97424.64
